Aeroporto :
LOGIN :

Iscrizione | Disclaimer

   EN    FR    IT 

 










Sommario :    VFR   VFR Marginale   IFR   IFR Intensivo   IFR Molto Intensivo
Visibilità : 
Base nubi : 
>= 8 km
>= 3000ft
5 / 8 km
1000 / 3000 ft
1500m / 5 km
500 / 1000 ft
800 / 1500m
200 / 500 ft
< 800m
< 200 ft
Simboli :   Temporali  Nebbia  Neve Forte  Precipitazioni Forti  Vento > 20 kt
SIGMETs :   Varie  Temporali  Ghiacco  Turbolenza  Onda orograficha  Ceneri Vulcaniche






- Altitudine del aeroporto : 584 ft


LFPV - Villacoublay Vélizy

ULTIMO METAR :
  • 230000Z AUTO 23011KT 190V260 9999 OVC011 10/08 Q1028 TEMPO 2000 DZ BKN003

METARs OBSOLETI :
  • 222330Z AUTO 24011KT 9999 OVC012 10/08 Q1028 TEMPO 2000 DZ BKN003
  • 222300Z AUTO 23010KT 200V260 9999 OVC012 10/08 Q1028 TEMPO 2000 DZ BKN003
  • 222230Z AUTO 23010KT 9999 OVC014 10/08 Q1028 TEMPO 2000 DZ BKN003
  • 222200Z AUTO 24012KT 200V260 9999 BKN014 OVC020 11/08 Q1028 TEMPO 2000 DZ BKN003
  • 222130Z AUTO 24011KT 210V270 9999 BKN016 BKN029 OVC072 11/08 Q1029 TEMPO 2000 DZ BKN003

TAF TAF LFPV
Valido dal 22 a 21 ore il 23 a 21 ore UTC


222000Z 2221/2321 23012KT 9999 BKN020
BECMG 2221/2223 BKN008
TEMPO 2223/2306 2000 DZ BKN003
TEMPO 2303/2315 24018G30KT
TEMPO 2312/2321 3000 RADZ BKN004



MetMap, La meteo Aeronautica in un colpo d'occhio ! - Copyright ORBIFLY Dicembre 2007 - Disclaimer

ORBIFLY MET'MAP TEAM :

Programmazione e sviluppo : Alexandra Zaïnal
Concezione : Baudouin d'Aumeries
Aiuto per la programmazione : Marc-Olivier Méhu
Supporto tecnico e logistico : Manuel Goepfert
Aiuto per la traduzione : Arnaldo La Scala

Contatto : metmap@orbifly.com




FONTI E CREDITI :

   NOAA